Ash Springs, Nevada
Current Conditions -  °F | °C
As of 8:55 PM on Saturday 25 Oct 2014 (Local Time) from KSGU Reporting Station
Clear Clear  
Wind Chill: 72°   Ceiling: Unl
Heat Index: 72°   Visibility: 10mi
Dew Point: 41°   Wind: 9mph
Humidity: 33%   Direction: 140°SE
Pressure: 30"   Gusts: NA
Location:  37.6°N, 114.8°W
Report Text: KSGU 260355Z AUTO 14008KT 10SM CLR 22/05 A3000 RMK AO1
Loading
Personal Weather Stations






























Interactive Weather Map
Tropical Storm Tracking
New forecast layout! Learn more

10-Day Weather Forecast

Advertisements
Track Severe Weather on mobile